createdAt,value
2023-01-28T00:02:16.623Z,8.40
2023-01-28T00:04:47.882Z,8.45
2023-01-28T00:07:19.358Z,8.27
2023-01-28T00:09:50.179Z,8.80
2023-01-28T00:12:21.818Z,10.48
2023-01-28T00:14:52.561Z,9.18
2023-01-28T00:17:25.981Z,9.23
2023-01-28T00:19:56.844Z,8.55
2023-01-28T00:22:27.709Z,8.27
2023-01-28T00:24:58.503Z,8.90
2023-01-28T00:27:29.365Z,9.00
2023-01-28T00:30:02.009Z,8.10
2023-01-28T00:32:35.596Z,9.70
2023-01-28T00:35:06.524Z,9.82
2023-01-28T00:37:38.086Z,9.75
2023-01-28T00:40:10.214Z,10.40
2023-01-28T00:42:41.145Z,8.27
2023-01-28T00:45:13.373Z,7.90
2023-01-28T00:47:48.589Z,8.05
2023-01-28T00:50:20.489Z,7.65
2023-01-28T00:52:51.601Z,7.55
2023-01-28T00:55:22.474Z,8.00
2023-01-28T00:57:53.516Z,8.23
2023-01-28T01:00:27.439Z,7.63
2023-01-28T01:03:01.516Z,7.93
2023-01-28T01:05:34.074Z,7.57
2023-01-28T01:08:05.072Z,6.97
2023-01-28T01:10:36.060Z,6.80
2023-01-28T01:13:07.124Z,7.40
2023-01-28T01:15:39.819Z,7.03
2023-01-28T01:18:13.301Z,6.80
2023-01-28T01:20:45.864Z,6.53
2023-01-28T01:23:16.758Z,6.70
2023-01-28T01:25:47.522Z,6.45
2023-01-28T01:28:19.224Z,6.47
2023-01-28T01:30:50.423Z,6.85
2023-01-28T01:33:24.117Z,6.65
2023-01-28T01:35:57.879Z,6.47
2023-01-28T01:38:31.421Z,6.32
2023-01-28T01:41:03.192Z,6.40
2023-01-28T01:43:51.242Z,5.75
2023-01-28T01:46:25.712Z,6.22
2023-01-28T01:49:03.602Z,6.15
2023-01-28T01:51:38.569Z,6.50
2023-01-28T01:54:09.885Z,6.07
2023-01-28T01:56:45.530Z,6.50
2023-01-28T01:59:21.092Z,6.25
2023-01-28T02:01:52.310Z,6.30
2023-01-28T02:04:29.103Z,6.45
2023-01-28T02:07:01.659Z,5.97
2023-01-28T02:09:34.641Z,5.97
2023-01-28T02:12:10.184Z,5.97
2023-01-28T02:14:44.993Z,5.88
2023-01-28T02:17:17.072Z,5.90
2023-01-28T02:19:56.834Z,5.63
2023-01-28T02:23:01.118Z,5.65
2023-01-28T02:26:01.263Z,5.13
2023-01-28T02:28:41.741Z,5.78
2023-01-28T02:31:18.541Z,4.90
2023-01-28T02:33:59.692Z,4.55
2023-01-28T02:36:39.512Z,4.82
2023-01-28T02:39:16.644Z,4.30
2023-01-28T02:41:56.424Z,4.75
2023-01-28T02:44:30.509Z,4.47
2023-01-28T02:47:13.582Z,4.60
2023-01-28T02:49:47.237Z,5.22
2023-01-28T02:53:10.056Z,4.30
2023-01-28T02:55:47.379Z,4.05
2023-01-28T02:58:28.148Z,3.55
2023-01-28T03:01:10.731Z,3.70
2023-01-28T03:03:53.016Z,4.10
2023-01-28T03:06:28.474Z,3.90
2023-01-28T03:09:16.901Z,4.05
2023-01-28T03:12:03.625Z,4.15
2023-01-28T03:14:49.542Z,3.80
2023-01-28T03:17:41.717Z,4.90
2023-01-28T03:20:26.442Z,4.40
2023-01-28T03:23:12.526Z,4.30
2023-01-28T03:25:58.784Z,5.05
2023-01-28T03:28:44.042Z,5.50
2023-01-28T03:31:29.995Z,4.55
2023-01-28T03:34:19.364Z,4.60
2023-01-28T03:36:53.594Z,4.90
2023-01-28T03:39:43.348Z,5.30
2023-01-28T03:42:18.952Z,5.38
2023-01-28T03:45:15.179Z,5.20
2023-01-28T03:47:46.219Z,6.18
2023-01-28T03:50:20.084Z,6.80
2023-01-28T03:53:15.837Z,8.63
2023-01-28T03:55:52.618Z,10.18
2023-01-28T03:58:27.387Z,5.78
2023-01-28T04:00:58.598Z,5.65
2023-01-28T04:03:29.589Z,4.80
2023-01-28T04:06:08.751Z,4.90
2023-01-28T04:08:59.771Z,5.68
2023-01-28T04:11:30.798Z,5.10
2023-01-28T04:14:04.646Z,4.75
2023-01-28T04:16:45.986Z,5.05
2023-01-28T04:19:17.071Z,4.65
2023-01-28T04:21:54.254Z,4.43
2023-01-28T04:24:25.976Z,5.28
2023-01-28T04:26:58.023Z,3.90
2023-01-28T04:29:29.723Z,5.03
2023-01-28T04:32:05.878Z,4.47
2023-01-28T04:34:55.161Z,4.65
2023-01-28T04:37:44.180Z,5.13
2023-01-28T04:40:38.398Z,4.95
2023-01-28T04:43:14.855Z,5.93
2023-01-28T04:45:58.051Z,5.82
2023-01-28T04:48:43.596Z,6.53
2023-01-28T04:51:37.821Z,6.60
2023-01-28T04:54:28.027Z,5.60
2023-01-28T04:57:03.092Z,5.65
2023-01-28T04:59:34.991Z,5.85
2023-01-28T05:02:06.092Z,6.15
2023-01-28T05:04:37.096Z,5.43
2023-01-28T05:07:08.385Z,6.13
2023-01-28T05:09:42.203Z,5.60
2023-01-28T05:12:13.162Z,5.75
2023-01-28T05:14:44.087Z,6.35
2023-01-28T05:17:20.127Z,5.85
2023-01-28T05:19:51.099Z,6.38
2023-01-28T05:22:27.077Z,5.63
2023-01-28T05:25:17.499Z,5.80
2023-01-28T05:27:54.138Z,5.70
2023-01-28T05:30:25.058Z,6.50
2023-01-28T05:32:59.203Z,6.20
2023-01-28T05:35:30.065Z,6.00
2023-01-28T05:38:00.808Z,6.28
2023-01-28T05:40:34.368Z,6.07
2023-01-28T05:43:06.530Z,6.38
2023-01-28T05:45:56.346Z,5.35
2023-01-28T05:48:34.315Z,5.95
2023-01-28T05:51:15.083Z,5.78
2023-01-28T05:53:49.424Z,5.68
2023-01-28T05:56:22.868Z,6.70
2023-01-28T05:58:53.654Z,5.38
2023-01-28T06:01:24.758Z,5.60
2023-01-28T06:03:58.145Z,5.82
2023-01-28T06:06:32.872Z,6.05
2023-01-28T06:09:04.114Z,6.28
2023-01-28T06:11:38.180Z,6.60
2023-01-28T06:14:09.875Z,6.20
2023-01-28T06:17:06.708Z,5.97
2023-01-28T06:20:00.919Z,5.80
2023-01-28T06:22:34.219Z,6.00
2023-01-28T06:25:05.145Z,6.22
2023-01-28T06:27:39.843Z,5.72
2023-01-28T06:30:11.890Z,5.63
2023-01-28T06:32:42.683Z,5.75
2023-01-28T06:35:13.525Z,6.95
2023-01-28T06:37:45.713Z,6.82
2023-01-28T06:40:17.316Z,6.65
2023-01-28T06:42:51.066Z,6.43
2023-01-28T06:45:21.966Z,6.43
2023-01-28T06:47:52.909Z,6.25
2023-01-28T06:50:23.796Z,6.18
2023-01-28T06:52:55.117Z,6.53
2023-01-28T06:55:26.016Z,7.28
2023-01-28T06:57:59.461Z,6.90
2023-01-28T07:00:30.329Z,7.38
2023-01-28T07:03:01.277Z,6.88
2023-01-28T07:05:32.066Z,7.30
2023-01-28T07:08:03.021Z,7.03
2023-01-28T07:10:34.014Z,7.25
2023-01-28T07:13:07.642Z,8.90
2023-01-28T07:15:39.355Z,8.07
2023-01-28T07:18:10.197Z,8.43
2023-01-28T07:20:41.130Z,7.35
2023-01-28T07:23:12.627Z,8.07
2023-01-28T07:25:43.437Z,8.38
2023-01-28T07:28:21.607Z,8.57
2023-01-28T07:30:53.828Z,7.82
2023-01-28T07:33:25.137Z,9.10
2023-01-28T07:35:55.935Z,8.10
2023-01-28T07:38:26.858Z,9.40
2023-01-28T07:40:57.620Z,9.35
2023-01-28T07:43:31.121Z,10.05
2023-01-28T07:46:04.462Z,11.73
2023-01-28T07:48:36.040Z,13.10
2023-01-28T07:51:07.250Z,11.82
2023-01-28T07:53:38.062Z,11.45
2023-01-28T07:56:09.481Z,12.05
2023-01-28T07:58:43.050Z,10.98
2023-01-28T08:01:14.495Z,10.70
2023-01-28T08:03:45.379Z,11.20
2023-01-28T08:06:16.893Z,11.18
2023-01-28T08:08:48.040Z,9.77
2023-01-28T08:11:18.958Z,11.27
2023-01-28T08:13:52.769Z,12.48
2023-01-28T08:16:23.559Z,11.88
2023-01-28T08:18:55.577Z,11.07
2023-01-28T08:21:26.493Z,12.25
2023-01-28T08:23:57.625Z,12.35
2023-01-28T08:26:28.457Z,11.95
2023-01-28T08:29:02.055Z,12.27
2023-01-28T08:31:33.213Z,12.18
2023-01-28T08:34:04.135Z,11.40
2023-01-28T08:36:35.004Z,12.18
2023-01-28T08:39:06.247Z,12.48
2023-01-28T08:41:37.142Z,12.68
2023-01-28T08:44:10.626Z,12.85
2023-01-28T08:46:41.498Z,11.50
2023-01-28T08:49:12.351Z,11.60
2023-01-28T08:51:43.337Z,12.25
2023-01-28T08:54:14.108Z,13.23
2023-01-28T08:56:45.459Z,13.50
2023-01-28T08:59:18.916Z,12.82
2023-01-28T09:01:49.723Z,13.13
2023-01-28T09:04:20.713Z,12.63
2023-01-28T09:06:51.535Z,12.25
2023-01-28T09:09:22.501Z,12.57
2023-01-28T09:11:53.310Z,13.05
2023-01-28T09:14:26.729Z,12.20
2023-01-28T09:16:57.533Z,12.90
2023-01-28T09:19:29.666Z,11.55
2023-01-28T09:22:00.611Z,12.48
2023-01-28T09:24:31.537Z,11.35
2023-01-28T09:27:02.940Z,11.75
2023-01-28T09:29:38.195Z,13.23
2023-01-28T09:32:10.151Z,12.48
2023-01-28T09:34:42.036Z,12.32
2023-01-28T09:37:14.997Z,13.07
2023-01-28T09:39:45.847Z,12.70
2023-01-28T09:42:42.916Z,12.68
2023-01-28T09:45:24.181Z,12.48
2023-01-28T09:47:59.299Z,11.85
2023-01-28T09:50:36.575Z,12.68
2023-01-28T09:53:13.336Z,12.95
2023-01-28T09:55:49.586Z,13.45
2023-01-28T09:58:22.111Z,12.57
2023-01-28T10:01:02.826Z,12.95
2023-01-28T10:03:43.278Z,12.25
2023-01-28T10:06:24.723Z,13.77
2023-01-28T10:09:26.709Z,12.40
2023-01-28T10:12:09.149Z,13.98
2023-01-28T10:14:53.421Z,12.98
2023-01-28T10:17:31.920Z,13.10
2023-01-28T10:20:09.189Z,12.57
2023-01-28T10:22:46.436Z,12.65
2023-01-28T10:25:22.420Z,12.63
2023-01-28T10:27:55.174Z,13.23
2023-01-28T10:30:28.584Z,12.80
2023-01-28T10:33:08.343Z,12.00
2023-01-28T10:35:44.611Z,12.23
2023-01-28T10:38:19.402Z,12.07
2023-01-28T10:40:50.763Z,13.57
2023-01-28T10:43:25.981Z,13.05
2023-01-28T10:46:01.697Z,12.27
2023-01-28T10:48:38.191Z,12.18
2023-01-28T10:51:09.458Z,12.05
2023-01-28T10:53:41.826Z,12.50
2023-01-28T10:56:15.374Z,12.43
2023-01-28T10:59:02.394Z,13.57
2023-01-28T11:01:45.279Z,12.50
2023-01-28T11:04:26.859Z,11.70
2023-01-28T11:07:00.095Z,14.45
2023-01-28T11:09:33.785Z,12.10
2023-01-28T11:12:16.432Z,13.32
2023-01-28T11:14:54.786Z,12.05
2023-01-28T11:17:27.427Z,11.55
2023-01-28T11:20:04.590Z,11.35
2023-01-28T11:22:38.948Z,10.80
2023-01-28T11:25:19.029Z,11.85
2023-01-28T11:27:52.044Z,11.20
2023-01-28T11:30:27.369Z,11.48
2023-01-28T11:33:06.184Z,11.32
2023-01-28T11:35:39.626Z,11.80
2023-01-28T11:38:21.235Z,11.73
2023-01-28T11:40:55.933Z,11.18
2023-01-28T11:43:29.556Z,11.32
2023-01-28T11:46:21.359Z,10.48
2023-01-28T11:49:00.583Z,10.95
2023-01-28T11:51:43.415Z,11.02
2023-01-28T11:54:28.296Z,10.23
2023-01-28T11:57:16.502Z,9.82
2023-01-28T12:00:02.756Z,10.40
2023-01-28T12:02:51.859Z,10.48
2023-01-28T12:05:37.354Z,9.73
2023-01-28T12:08:19.883Z,9.73
2023-01-28T12:11:18.442Z,9.10
2023-01-28T12:13:59.409Z,9.32
2023-01-28T12:16:50.350Z,9.88
2023-01-28T12:19:45.808Z,10.25
2023-01-28T12:22:39.799Z,10.18
2023-01-28T12:25:29.904Z,9.73
2023-01-28T12:28:10.833Z,9.25
2023-01-28T12:30:55.717Z,8.80
2023-01-28T12:34:05.608Z,9.57
2023-01-28T12:36:50.897Z,7.80
2023-01-28T12:39:34.575Z,7.78
2023-01-28T12:42:14.000Z,8.20
2023-01-28T12:44:51.255Z,7.65
2023-01-28T12:47:26.893Z,7.55
2023-01-28T12:50:02.921Z,7.32
2023-01-28T12:52:38.377Z,6.22
2023-01-28T12:55:18.550Z,7.57
2023-01-28T12:57:53.735Z,6.68
2023-01-28T13:00:31.348Z,7.90
2023-01-28T13:03:12.518Z,8.18
2023-01-28T13:05:47.303Z,8.15
2023-01-28T13:08:24.910Z,7.40
2023-01-28T13:10:56.758Z,8.23
2023-01-28T13:13:35.789Z,8.30
2023-01-28T13:16:08.191Z,7.82
2023-01-28T13:18:47.522Z,7.53
2023-01-28T13:21:21.057Z,6.78
2023-01-28T13:23:53.330Z,7.32
2023-01-28T13:26:44.884Z,6.57
2023-01-28T13:29:33.136Z,6.35
2023-01-28T13:32:07.046Z,5.70
2023-01-28T13:34:40.964Z,5.47
2023-01-28T13:37:24.758Z,6.10
2023-01-28T13:39:59.013Z,6.18
2023-01-28T13:42:31.308Z,5.68
2023-01-28T13:45:27.256Z,6.22
2023-01-28T13:48:04.223Z,5.88
2023-01-28T13:50:42.756Z,5.22
2023-01-28T13:53:25.668Z,6.43
2023-01-28T13:56:00.781Z,5.38
2023-01-28T13:59:12.140Z,5.68
2023-01-28T14:02:11.044Z,6.13
2023-01-28T14:05:14.775Z,7.10
2023-01-28T14:08:14.530Z,9.32
2023-01-28T14:11:03.069Z,8.27
2023-01-28T14:13:46.506Z,7.63
2023-01-28T14:16:38.217Z,5.57
2023-01-28T14:19:16.261Z,6.63
2023-01-28T14:21:50.250Z,6.40
2023-01-28T14:24:22.786Z,7.22
2023-01-28T14:27:02.956Z,6.72
2023-01-28T14:29:52.314Z,6.20
2023-01-28T14:32:28.836Z,6.22
2023-01-28T14:35:05.015Z,5.20
2023-01-28T14:37:36.460Z,5.47
2023-01-28T14:40:11.261Z,5.45
2023-01-28T14:42:45.695Z,5.78
2023-01-28T14:45:33.301Z,6.35
2023-01-28T14:48:25.567Z,6.57
2023-01-28T14:51:18.709Z,6.53
2023-01-28T14:54:09.129Z,5.78
2023-01-28T14:56:52.970Z,5.57
2023-01-28T14:59:28.003Z,5.43
2023-01-28T15:02:00.919Z,5.40
2023-01-28T15:04:33.959Z,4.93
2023-01-28T15:07:20.005Z,5.00
2023-01-28T15:09:51.964Z,4.82
2023-01-28T15:12:22.911Z,4.80
2023-01-28T15:14:55.176Z,5.13
2023-01-28T15:17:30.674Z,5.38
2023-01-28T15:20:02.376Z,5.30
2023-01-28T15:22:35.883Z,4.68
2023-01-28T15:25:07.377Z,4.32
2023-01-28T15:27:39.832Z,4.28
2023-01-28T15:30:26.950Z,4.13
2023-01-28T15:33:06.014Z,5.88
2023-01-28T15:35:39.372Z,4.47
2023-01-28T15:38:13.126Z,4.60
2023-01-28T15:40:46.117Z,4.18
2023-01-28T15:43:22.637Z,4.30
2023-01-28T15:45:56.264Z,4.13
2023-01-28T15:48:29.639Z,4.63
2023-01-28T15:51:05.499Z,4.80
2023-01-28T15:53:46.198Z,4.85
2023-01-28T15:56:18.388Z,4.57
2023-01-28T15:58:49.293Z,4.90
2023-01-28T16:01:23.276Z,3.97
2023-01-28T16:04:05.514Z,4.15
2023-01-28T16:06:41.983Z,4.38
2023-01-28T16:09:25.946Z,4.50
2023-01-28T16:11:57.267Z,5.10
2023-01-28T16:14:32.136Z,4.25
2023-01-28T16:17:03.275Z,5.00
2023-01-28T16:19:40.912Z,4.63
2023-01-28T16:22:22.008Z,4.45
2023-01-28T16:24:57.066Z,4.35
2023-01-28T16:27:29.512Z,4.30
2023-01-28T16:30:01.347Z,3.97
2023-01-28T16:32:34.930Z,4.45
2023-01-28T16:35:06.528Z,5.50
2023-01-28T16:37:39.410Z,4.68
2023-01-28T16:40:16.508Z,5.18
2023-01-28T16:42:48.673Z,4.07
2023-01-28T16:45:21.213Z,4.88
2023-01-28T16:47:52.349Z,4.15
2023-01-28T16:50:24.893Z,4.78
2023-01-28T16:52:58.306Z,4.30
2023-01-28T16:55:33.426Z,3.95
2023-01-28T16:58:05.590Z,4.60
2023-01-28T17:00:37.133Z,4.60
2023-01-28T17:03:08.653Z,4.75
2023-01-28T17:05:41.670Z,3.88
2023-01-28T17:08:13.397Z,4.80
2023-01-28T17:10:46.811Z,4.72
2023-01-28T17:13:18.293Z,4.15
2023-01-28T17:15:49.287Z,5.00
2023-01-28T17:18:20.070Z,4.88
2023-01-28T17:20:51.008Z,4.20
2023-01-28T17:23:24.448Z,4.18
2023-01-28T17:25:57.996Z,4.32
2023-01-28T17:28:28.965Z,4.80
2023-01-28T17:31:00.003Z,4.57
2023-01-28T17:33:31.047Z,4.55
2023-01-28T17:36:01.987Z,3.80
2023-01-28T17:38:33.196Z,4.57
2023-01-28T17:41:09.492Z,5.50
2023-01-28T17:43:40.261Z,6.28
2023-01-28T17:46:14.767Z,6.90
2023-01-28T17:48:46.152Z,6.03
2023-01-28T17:51:19.207Z,7.68
2023-01-28T17:53:50.893Z,6.32
2023-01-28T17:56:26.760Z,5.95
2023-01-28T17:58:59.574Z,4.93
2023-01-28T18:01:30.867Z,5.80
2023-01-28T18:04:03.226Z,6.47
2023-01-28T18:06:34.641Z,6.45
2023-01-28T18:09:05.944Z,6.53
2023-01-28T18:11:39.378Z,6.00
2023-01-28T18:14:10.207Z,5.72
2023-01-28T18:16:41.000Z,6.07
2023-01-28T18:19:11.903Z,6.10
2023-01-28T18:21:53.027Z,8.27
2023-01-28T18:24:26.022Z,6.78
2023-01-28T18:27:01.324Z,7.03
2023-01-28T18:29:34.260Z,9.10
2023-01-28T18:32:05.414Z,7.43
2023-01-28T18:34:36.508Z,5.38
2023-01-28T18:37:10.255Z,4.47
2023-01-28T18:39:42.299Z,5.10
2023-01-28T18:42:16.823Z,5.20
2023-01-28T18:44:47.680Z,4.65
2023-01-28T18:47:18.551Z,5.22
2023-01-28T18:49:49.328Z,4.68
2023-01-28T18:52:20.349Z,5.85
2023-01-28T18:54:51.181Z,5.82
2023-01-28T18:57:26.133Z,7.30
2023-01-28T18:59:57.070Z,6.03
2023-01-28T19:02:28.158Z,6.32
2023-01-28T19:04:59.557Z,6.25
2023-01-28T19:07:30.933Z,6.40
2023-01-28T19:10:02.206Z,7.18
2023-01-28T19:12:35.711Z,6.80
2023-01-28T19:15:07.180Z,7.00
2023-01-28T19:17:38.218Z,8.23
2023-01-28T19:20:10.720Z,7.82
2023-01-28T19:22:42.344Z,7.88
2023-01-28T19:25:14.252Z,7.50
2023-01-28T19:27:47.895Z,9.23
2023-01-28T19:30:19.159Z,10.52
2023-01-28T19:32:49.963Z,9.15
2023-01-28T19:35:20.847Z,9.38
2023-01-28T19:37:51.737Z,8.02
2023-01-28T19:40:22.921Z,7.95
2023-01-28T19:42:58.981Z,6.38
2023-01-28T19:45:30.184Z,7.50
2023-01-28T19:48:01.344Z,7.57
2023-01-28T19:50:32.451Z,5.03
2023-01-28T19:53:03.810Z,6.57
2023-01-28T19:55:34.775Z,6.38
2023-01-28T19:58:08.598Z,5.72
2023-01-28T20:00:39.690Z,5.80
2023-01-28T20:03:11.009Z,5.95
2023-01-28T20:05:41.935Z,5.72
2023-01-28T20:08:13.702Z,5.63
2023-01-28T20:10:44.658Z,7.38
2023-01-28T20:13:18.491Z,7.13
2023-01-28T20:15:49.514Z,6.38
2023-01-28T20:18:20.594Z,5.53
2023-01-28T20:20:55.944Z,5.38
2023-01-28T20:23:26.968Z,6.63
2023-01-28T20:25:59.150Z,6.03
2023-01-28T20:28:33.113Z,5.68
2023-01-28T20:31:07.719Z,8.30
2023-01-28T20:33:38.941Z,6.07
2023-01-28T20:36:11.989Z,6.10
2023-01-28T20:38:44.659Z,5.07
2023-01-28T20:41:18.290Z,4.80
2023-01-28T20:43:52.898Z,5.10
2023-01-28T20:46:25.586Z,5.57
2023-01-28T20:48:57.168Z,7.05
2023-01-28T20:51:30.475Z,5.07
2023-01-28T20:54:03.372Z,4.40
2023-01-28T20:56:34.807Z,4.22
2023-01-28T20:59:09.385Z,4.57
2023-01-28T21:01:41.767Z,4.30
2023-01-28T21:04:13.025Z,4.68
2023-01-28T21:06:44.141Z,5.18
2023-01-28T21:09:16.205Z,4.20
2023-01-28T21:11:48.859Z,3.95
2023-01-28T21:14:22.896Z,7.30
2023-01-28T21:16:54.384Z,4.40
2023-01-28T21:19:25.439Z,4.45
2023-01-28T21:21:56.989Z,5.93
2023-01-28T21:24:28.227Z,6.63
2023-01-28T21:26:59.177Z,5.35
2023-01-28T21:29:32.669Z,5.45
2023-01-28T21:32:03.617Z,6.25
2023-01-28T21:34:34.834Z,7.22
2023-01-28T21:37:05.706Z,6.43
2023-01-28T21:39:37.054Z,4.63
2023-01-28T21:42:08.198Z,3.88
2023-01-28T21:44:41.601Z,4.55
2023-01-28T21:47:12.445Z,4.72
2023-01-28T21:49:43.363Z,6.68
2023-01-28T21:52:15.937Z,5.60
2023-01-28T21:54:48.431Z,6.25
2023-01-28T21:57:19.671Z,6.20
2023-01-28T21:59:53.734Z,7.95
2023-01-28T22:02:25.229Z,6.05
2023-01-28T22:04:57.363Z,9.43
2023-01-28T22:07:28.721Z,10.20
2023-01-28T22:10:00.956Z,8.10
2023-01-28T22:12:33.002Z,5.03
2023-01-28T22:15:07.364Z,4.40
2023-01-28T22:17:38.643Z,3.30
2023-01-28T22:20:11.364Z,3.53
2023-01-28T22:22:42.151Z,4.03
2023-01-28T22:25:13.863Z,4.53
2023-01-28T22:27:44.739Z,4.60
2023-01-28T22:30:18.844Z,4.82
2023-01-28T22:32:49.974Z,4.97
2023-01-28T22:35:20.886Z,4.35
2023-01-28T22:37:51.776Z,4.85
2023-01-28T22:40:22.661Z,4.70
2023-01-28T22:42:53.550Z,4.60
2023-01-28T22:45:27.014Z,4.85
2023-01-28T22:47:58.192Z,5.88
2023-01-28T22:50:29.000Z,5.63
2023-01-28T22:52:59.831Z,5.10
2023-01-28T22:55:30.644Z,3.42
2023-01-28T22:58:01.486Z,4.50
2023-01-28T23:00:34.955Z,4.85
2023-01-28T23:03:05.835Z,5.38
2023-01-28T23:05:36.835Z,5.63
2023-01-28T23:08:13.150Z,5.60
2023-01-28T23:10:50.287Z,5.10
2023-01-28T23:13:22.642Z,4.38
2023-01-28T23:16:08.566Z,5.43
2023-01-28T23:18:52.883Z,5.57
2023-01-28T23:21:37.913Z,4.93
2023-01-28T23:24:22.903Z,5.00
2023-01-28T23:26:54.988Z,4.00
2023-01-28T23:29:28.575Z,5.13
2023-01-28T23:32:04.847Z,4.40
2023-01-28T23:34:38.138Z,4.55
2023-01-28T23:37:10.994Z,5.20
2023-01-28T23:39:42.415Z,7.90
2023-01-28T23:42:15.244Z,9.32
2023-01-28T23:44:46.617Z,9.13
2023-01-28T23:47:20.356Z,7.80
2023-01-28T23:49:51.230Z,6.53
2023-01-28T23:52:22.130Z,5.15
2023-01-28T23:54:52.970Z,4.70
2023-01-28T23:57:23.849Z,8.02
2023-01-28T23:59:55.671Z,5.68
